createdAt,value
2023-05-21T00:02:44.295Z,24.75
2023-05-21T00:05:47.961Z,25.00
2023-05-21T00:08:50.985Z,28.50
2023-05-21T00:11:53.592Z,26.00
2023-05-21T00:14:56.437Z,29.25
2023-05-21T00:17:58.912Z,30.00
2023-05-21T00:21:02.225Z,25.00
2023-05-21T00:24:04.953Z,26.50
2023-05-21T00:27:07.736Z,29.00
2023-05-21T00:30:11.062Z,26.50
2023-05-21T00:33:14.259Z,27.50
2023-05-21T00:36:17.558Z,26.75
2023-05-21T00:39:20.397Z,25.25
2023-05-21T00:42:27.665Z,28.50
2023-05-21T00:45:30.776Z,27.25
2023-05-21T00:48:33.670Z,27.75
2023-05-21T00:51:37.032Z,27.50
2023-05-21T00:54:39.845Z,28.25
2023-05-21T00:57:42.972Z,31.00
2023-05-21T01:00:46.352Z,24.25
2023-05-21T01:03:49.522Z,28.25
2023-05-21T01:06:53.861Z,27.75
2023-05-21T01:09:57.113Z,28.00
2023-05-21T01:13:00.234Z,31.00
2023-05-21T01:16:03.578Z,31.00
2023-05-21T01:19:07.587Z,23.25
2023-05-21T01:22:12.945Z,27.50
2023-05-21T01:25:15.498Z,34.25
2023-05-21T01:28:18.332Z,31.00
2023-05-21T01:31:27.506Z,21.25
2023-05-21T01:34:41.654Z,34.50
2023-05-21T01:38:07.423Z,29.00
2023-05-21T01:41:14.618Z,30.75
2023-05-21T01:44:19.601Z,27.25
2023-05-21T01:47:27.562Z,25.25
2023-05-21T01:50:30.233Z,31.50
2023-05-21T01:53:33.179Z,27.75
2023-05-21T01:56:37.179Z,30.75
2023-05-21T01:59:40.246Z,23.50
2023-05-21T02:02:43.298Z,28.25
2023-05-21T02:05:47.477Z,24.25
2023-05-21T02:08:51.555Z,22.00
2023-05-21T02:11:54.741Z,31.00
2023-05-21T02:14:57.842Z,28.00
2023-05-21T02:18:01.087Z,32.00
2023-05-21T02:21:03.541Z,31.00
2023-05-21T02:24:06.581Z,30.75
2023-05-21T02:27:10.894Z,27.00
2023-05-21T02:30:15.782Z,29.00
2023-05-21T02:33:20.095Z,26.25
2023-05-21T02:36:23.011Z,27.50
2023-05-21T02:39:27.172Z,21.25
2023-05-21T02:42:31.983Z,25.25
2023-05-21T02:45:35.002Z,24.50
2023-05-21T02:48:38.333Z,28.25
2023-05-21T02:51:41.447Z,29.25
2023-05-21T02:54:47.163Z,27.50
2023-05-21T02:57:51.206Z,26.00
2023-05-21T03:00:54.369Z,28.50
2023-05-21T03:03:57.011Z,25.00
2023-05-21T03:07:02.372Z,21.50
2023-05-21T03:10:06.980Z,26.00
2023-05-21T03:13:10.126Z,24.00
2023-05-21T03:16:13.912Z,28.00
2023-05-21T03:19:16.677Z,23.50
2023-05-21T03:22:20.366Z,24.50
2023-05-21T03:25:25.514Z,26.75
2023-05-21T03:28:29.997Z,25.00
2023-05-21T03:31:32.965Z,28.00
2023-05-21T03:34:42.406Z,23.75
2023-05-21T03:37:45.827Z,24.50
2023-05-21T03:40:49.356Z,25.50
2023-05-21T03:43:52.969Z,24.25
2023-05-21T03:46:59.318Z,26.25
2023-05-21T03:50:09.527Z,23.50
2023-05-21T03:53:12.724Z,22.00
2023-05-21T03:56:15.832Z,26.25
2023-05-21T03:59:18.411Z,27.00
2023-05-21T04:02:22.804Z,27.50
2023-05-21T04:05:25.514Z,22.00
2023-05-21T04:08:28.304Z,25.75
2023-05-21T04:11:31.572Z,19.75
2023-05-21T04:14:34.570Z,23.00
2023-05-21T04:17:36.914Z,22.50
2023-05-21T04:20:40.075Z,24.75
2023-05-21T04:23:42.792Z,18.75
2023-05-21T04:26:56.298Z,24.25
2023-05-21T04:29:58.887Z,21.00
2023-05-21T04:33:03.164Z,23.00
2023-05-21T04:36:05.910Z,21.50
2023-05-21T04:39:08.734Z,22.50
2023-05-21T04:42:11.756Z,21.75
2023-05-21T04:45:14.990Z,23.00
2023-05-21T04:48:20.700Z,23.75
2023-05-21T04:51:25.041Z,20.50
2023-05-21T04:54:27.980Z,18.00
2023-05-21T04:57:31.378Z,19.75
2023-05-21T05:00:37.911Z,17.00
2023-05-21T05:03:42.785Z,15.25
2023-05-21T05:06:45.290Z,16.75
2023-05-21T05:09:48.322Z,16.00
2023-05-21T05:12:50.877Z,14.00
2023-05-21T05:15:55.116Z,17.25
2023-05-21T05:18:57.760Z,17.25
2023-05-21T05:22:00.700Z,12.25
2023-05-21T05:25:03.278Z,15.25
2023-05-21T05:28:06.089Z,14.75
2023-05-21T05:31:09.158Z,14.25
2023-05-21T05:34:12.169Z,12.75
2023-05-21T05:37:14.725Z,14.25
2023-05-21T05:40:17.639Z,10.00
2023-05-21T05:43:20.457Z,13.50
2023-05-21T05:46:26.054Z,13.50
2023-05-21T05:49:28.564Z,16.00
2023-05-21T05:52:31.419Z,13.25
2023-05-21T05:55:34.067Z,11.00
2023-05-21T05:58:37.621Z,13.00
2023-05-21T06:01:48.454Z,14.00
2023-05-21T06:04:52.147Z,11.00
2023-05-21T06:07:54.699Z,12.75
2023-05-21T06:10:57.549Z,12.25
2023-05-21T06:14:02.054Z,9.50
2023-05-21T06:17:05.143Z,9.25
2023-05-21T06:20:09.594Z,9.00
2023-05-21T06:23:12.928Z,11.00
2023-05-21T06:26:16.869Z,10.00
2023-05-21T06:29:19.709Z,12.33
2023-05-21T06:32:23.819Z,12.00
2023-05-21T06:35:26.919Z,12.00
2023-05-21T06:38:29.714Z,11.00
2023-05-21T06:41:32.630Z,9.00
2023-05-21T06:44:40.370Z,9.00
2023-05-21T06:47:58.359Z,12.00
2023-05-21T06:51:00.870Z,10.00
2023-05-21T06:54:04.392Z,10.00
2023-05-21T06:57:07.939Z,9.00
2023-05-21T07:00:11.549Z,11.00
2023-05-21T07:03:15.424Z,8.67
2023-05-21T07:06:18.490Z,10.00
2023-05-21T07:09:21.688Z,9.00
2023-05-21T07:12:26.520Z,9.67
2023-05-21T07:15:29.178Z,9.33
2023-05-21T07:18:32.950Z,8.67
2023-05-21T07:21:35.475Z,8.67
2023-05-21T07:24:38.619Z,13.00
2023-05-21T07:27:42.370Z,9.67
2023-05-21T07:30:47.049Z,8.00
2023-05-21T07:33:54.287Z,8.33
2023-05-21T07:37:02.189Z,9.00
2023-05-21T07:40:06.627Z,10.00
2023-05-21T07:43:10.888Z,6.67
2023-05-21T07:46:15.382Z,6.33
2023-05-21T07:49:20.429Z,7.00
2023-05-21T07:52:23.922Z,8.00
2023-05-21T07:55:26.762Z,8.00
2023-05-21T08:02:10.980Z,8.67
2023-05-21T08:05:19.291Z,7.00
2023-05-21T08:08:24.537Z,9.33
2023-05-21T08:11:30.287Z,7.00
2023-05-21T08:14:33.065Z,6.33
2023-05-21T08:17:36.427Z,5.33
2023-05-21T08:20:39.280Z,8.00
2023-05-21T08:23:43.952Z,7.00
2023-05-21T08:26:47.757Z,4.67
2023-05-21T08:29:50.708Z,6.00
2023-05-21T08:32:53.543Z,6.00
2023-05-21T08:35:56.771Z,2.00
2023-05-21T08:39:07.342Z,8.67
2023-05-21T08:42:39.996Z,8.00
2023-05-21T08:45:45.774Z,9.33
2023-05-21T08:48:49.078Z,6.00
2023-05-21T08:51:52.074Z,5.00
2023-05-21T08:54:58.405Z,7.67
2023-05-21T08:58:02.016Z,6.33
2023-05-21T09:01:06.703Z,6.33
2023-05-21T09:04:21.289Z,6.33
2023-05-21T09:07:29.355Z,1.33
2023-05-21T09:11:07.038Z,4.33
2023-05-21T09:14:17.425Z,5.33
2023-05-21T09:17:38.434Z,4.67
2023-05-21T09:21:24.815Z,6.00
2023-05-21T09:24:32.103Z,6.33
2023-05-21T09:27:36.732Z,5.67
2023-05-21T09:30:53.846Z,7.33
2023-05-21T09:33:58.478Z,9.00
2023-05-21T09:37:03.743Z,7.00
2023-05-21T09:40:22.520Z,6.00
2023-05-21T09:43:26.194Z,6.33
2023-05-21T09:46:40.978Z,7.00
2023-05-21T09:49:44.781Z,5.00
2023-05-21T09:52:50.449Z,7.00
2023-05-21T09:55:54.642Z,7.67
2023-05-21T09:59:00.557Z,7.67
2023-05-21T10:02:03.228Z,7.00
2023-05-21T10:05:09.338Z,3.33
2023-05-21T10:08:12.640Z,8.33
2023-05-21T10:11:17.018Z,4.33
2023-05-21T10:14:23.982Z,5.67
2023-05-21T10:17:28.667Z,6.67
2023-05-21T10:20:31.515Z,6.33
2023-05-21T10:23:36.653Z,5.67
2023-05-21T10:26:40.508Z,7.00
2023-05-21T10:29:44.761Z,9.33
2023-05-21T10:32:48.563Z,8.00
2023-05-21T10:35:53.252Z,6.00
2023-05-21T10:38:57.277Z,5.75
2023-05-21T10:42:09.814Z,4.75
2023-05-21T10:45:32.732Z,3.50
2023-05-21T10:48:54.179Z,5.25
2023-05-21T10:52:44.263Z,5.75
2023-05-21T10:55:52.363Z,5.00
2023-05-21T10:59:22.482Z,6.25
2023-05-21T11:02:27.042Z,5.75
2023-05-21T11:06:00.379Z,5.00
2023-05-21T11:09:15.372Z,4.00
2023-05-21T11:12:18.316Z,3.25
2023-05-21T11:15:21.404Z,4.67
2023-05-21T11:18:35.767Z,3.50
2023-05-21T11:21:40.664Z,4.67
2023-05-21T11:24:43.165Z,3.33
2023-05-21T11:27:45.927Z,4.25
2023-05-21T11:31:40.620Z,5.25
2023-05-21T11:34:46.343Z,6.25
2023-05-21T11:37:50.761Z,6.33
2023-05-21T11:40:55.584Z,4.50
2023-05-21T11:44:01.719Z,5.33
2023-05-21T11:47:05.402Z,3.75
2023-05-21T11:50:13.434Z,4.00
2023-05-21T11:53:16.425Z,5.33
2023-05-21T11:56:20.744Z,7.25
2023-05-21T11:59:23.562Z,7.33
2023-05-21T12:02:31.284Z,4.33
2023-05-21T12:05:50.403Z,6.00
2023-05-21T12:08:53.155Z,6.67
2023-05-21T12:11:55.929Z,7.33
2023-05-21T12:14:59.179Z,4.00
2023-05-21T12:18:02.495Z,6.00
2023-05-21T12:21:05.281Z,5.67
2023-05-21T12:24:08.061Z,5.33
2023-05-21T12:27:13.219Z,5.67
2023-05-21T12:30:16.344Z,5.33
2023-05-21T12:33:19.759Z,9.00
2023-05-21T12:36:23.847Z,6.00
2023-05-21T12:39:26.377Z,4.00
2023-05-21T12:42:31.061Z,8.67
2023-05-21T12:45:33.796Z,7.33
2023-05-21T12:48:36.598Z,6.00
2023-05-21T12:51:40.280Z,5.33
2023-05-21T12:54:45.765Z,5.00
2023-05-21T12:57:48.323Z,5.00
2023-05-21T13:00:51.307Z,7.00
2023-05-21T13:03:53.837Z,4.67
2023-05-21T13:06:56.651Z,6.00
2023-05-21T13:10:00.887Z,4.33
2023-05-21T13:13:03.845Z,5.33
2023-05-21T13:16:08.555Z,6.67
2023-05-21T13:19:11.754Z,4.67
2023-05-21T13:22:14.413Z,7.33
2023-05-21T13:25:22.871Z,7.00
2023-05-21T13:28:25.724Z,5.50
2023-05-21T13:31:28.842Z,6.67
2023-05-21T13:34:31.429Z,6.67
2023-05-21T13:37:38.018Z,5.00
2023-05-21T13:40:40.933Z,4.67
2023-05-21T13:43:44.235Z,6.00
2023-05-21T13:46:46.942Z,5.00
2023-05-21T13:49:49.850Z,5.33
2023-05-21T13:52:52.453Z,7.00
2023-05-21T13:55:55.337Z,5.67
2023-05-21T13:58:57.968Z,5.00
2023-05-21T14:02:01.525Z,4.33
2023-05-21T14:05:04.152Z,5.00
2023-05-21T14:08:07.017Z,4.33
2023-05-21T14:11:09.390Z,4.00
2023-05-21T14:14:14.338Z,3.33
2023-05-21T14:17:16.893Z,5.00
2023-05-21T14:20:19.821Z,7.00
2023-05-21T14:23:22.338Z,4.00
2023-05-21T14:26:25.325Z,4.00
2023-05-21T14:29:27.901Z,4.33
2023-05-21T14:32:32.029Z,3.33
2023-05-21T14:35:34.809Z,4.67
2023-05-21T14:38:38.210Z,4.67
2023-05-21T14:41:41.296Z,6.00
2023-05-21T14:44:44.340Z,5.33
2023-05-21T14:47:47.975Z,3.33
2023-05-21T14:50:51.682Z,5.00
2023-05-21T14:53:54.411Z,6.33
2023-05-21T14:56:57.249Z,7.33
2023-05-21T15:00:00.078Z,5.67
2023-05-21T15:03:03.460Z,2.67
2023-05-21T15:06:06.428Z,5.00
2023-05-21T15:09:09.288Z,5.67
2023-05-21T15:12:11.742Z,5.00
2023-05-21T15:15:17.497Z,2.67
2023-05-21T15:18:20.090Z,4.33
2023-05-21T15:21:23.423Z,4.67
2023-05-21T15:24:26.512Z,6.00
2023-05-21T15:27:29.413Z,3.00
2023-05-21T15:30:32.018Z,4.00
2023-05-21T15:33:35.127Z,4.00
2023-05-21T15:36:37.653Z,4.33
2023-05-21T15:39:40.855Z,4.67
2023-05-21T15:42:43.467Z,4.67
2023-05-21T15:45:46.427Z,5.33
2023-05-21T15:48:48.974Z,5.67
2023-05-21T15:51:52.127Z,4.33
2023-05-21T15:54:55.143Z,4.00
2023-05-21T15:58:00.156Z,5.33
2023-05-21T16:01:04.134Z,6.33
2023-05-21T16:04:07.172Z,4.67
2023-05-21T16:07:09.799Z,4.67
2023-05-21T16:10:12.707Z,4.00
2023-05-21T16:13:15.118Z,6.00
2023-05-21T16:16:17.990Z,7.33
2023-05-21T16:19:21.381Z,4.67
2023-05-21T16:22:25.001Z,5.67
2023-05-21T16:25:27.604Z,7.00
2023-05-21T16:28:30.501Z,6.00
2023-05-21T16:31:34.326Z,5.67
2023-05-21T16:34:37.234Z,5.00
2023-05-21T16:37:41.916Z,5.00
2023-05-21T16:40:45.527Z,3.00
2023-05-21T16:43:48.497Z,5.33
2023-05-21T16:46:52.934Z,6.67
2023-05-21T16:49:56.286Z,4.00
2023-05-21T16:53:02.585Z,6.00
2023-05-21T16:56:05.152Z,7.00
2023-05-21T16:59:08.230Z,6.00
2023-05-21T17:02:13.757Z,5.00
2023-05-21T17:05:16.825Z,5.33
2023-05-21T17:08:19.631Z,6.67
2023-05-21T17:11:23.534Z,4.00
2023-05-21T17:14:34.495Z,5.00
2023-05-21T17:17:38.172Z,6.00
2023-05-21T17:20:40.764Z,4.00
2023-05-21T17:23:44.106Z,7.00
2023-05-21T17:26:46.606Z,5.33
2023-05-21T17:29:49.338Z,4.33
2023-05-21T17:32:51.893Z,2.67
2023-05-21T17:35:57.195Z,4.67
2023-05-21T17:38:59.771Z,5.67
2023-05-21T17:42:02.650Z,6.00
2023-05-21T17:45:05.441Z,6.67
2023-05-21T17:48:08.237Z,9.00
2023-05-21T17:51:11.684Z,5.00
2023-05-21T17:54:15.317Z,6.00
2023-05-21T17:57:19.979Z,6.67
2023-05-21T18:00:22.800Z,6.33
2023-05-21T18:03:25.270Z,8.00
2023-05-21T18:06:29.138Z,6.67
2023-05-21T18:09:32.667Z,5.67
2023-05-21T18:12:36.057Z,6.67
2023-05-21T18:15:38.843Z,8.00
2023-05-21T18:18:42.843Z,5.67
2023-05-21T18:21:46.110Z,7.00
2023-05-21T18:24:48.879Z,8.00
2023-05-21T18:27:52.389Z,6.00
2023-05-21T18:30:57.301Z,7.00
2023-05-21T18:33:59.706Z,7.00
2023-05-21T18:37:02.502Z,4.67
2023-05-21T18:40:08.051Z,9.00
2023-05-21T18:43:11.114Z,6.33
2023-05-21T18:46:13.589Z,8.00
2023-05-21T18:49:16.696Z,7.00
2023-05-21T18:52:19.395Z,8.33
2023-05-21T18:55:22.668Z,7.50
2023-05-21T18:58:25.184Z,7.00
2023-05-21T19:01:30.517Z,8.00
2023-05-21T19:04:33.232Z,9.75
2023-05-21T19:07:36.668Z,9.75
2023-05-21T19:10:39.975Z,8.00
2023-05-21T19:13:43.892Z,8.25
2023-05-21T19:16:46.813Z,10.00
2023-05-21T19:19:56.154Z,9.50
2023-05-21T19:22:58.905Z,9.25
2023-05-21T19:26:01.871Z,9.25
2023-05-21T19:29:04.606Z,10.50
2023-05-21T19:32:07.620Z,8.75
2023-05-21T19:35:11.361Z,7.75
2023-05-21T19:38:15.865Z,9.50
2023-05-21T19:41:18.967Z,11.00
2023-05-21T19:44:21.680Z,10.25
2023-05-21T19:47:24.320Z,9.00
2023-05-21T19:50:28.940Z,9.00
2023-05-21T19:53:31.605Z,14.00
2023-05-21T19:56:34.460Z,10.00
2023-05-21T19:59:37.127Z,8.00
2023-05-21T20:02:41.342Z,13.75
2023-05-21T20:05:44.225Z,11.75
2023-05-21T20:08:47.245Z,11.75
2023-05-21T20:11:49.728Z,9.50
2023-05-21T20:14:54.379Z,15.00
2023-05-21T20:17:59.365Z,12.50
2023-05-21T20:21:06.273Z,12.00
2023-05-21T20:24:09.001Z,13.50
2023-05-21T20:27:15.077Z,11.00
2023-05-21T20:30:17.545Z,14.00
2023-05-21T20:33:25.385Z,14.00
2023-05-21T20:36:30.663Z,12.25
2023-05-21T20:39:33.674Z,13.25
2023-05-21T20:42:36.766Z,15.75
2023-05-21T20:45:41.453Z,14.00
2023-05-21T20:48:44.107Z,11.00
2023-05-21T20:51:47.245Z,13.00
2023-05-21T20:54:49.850Z,11.25
2023-05-21T20:57:52.868Z,13.00
2023-05-21T21:00:55.436Z,13.25
2023-05-21T21:03:58.800Z,13.25
2023-05-21T21:07:02.089Z,13.00
2023-05-21T21:10:06.179Z,11.00
2023-05-21T21:13:08.799Z,12.75
2023-05-21T21:16:11.708Z,14.50
2023-05-21T21:19:14.240Z,14.00
2023-05-21T21:22:18.579Z,13.25
2023-05-21T21:25:21.261Z,18.00
2023-05-21T21:28:24.164Z,17.75
2023-05-21T21:31:26.837Z,12.25
2023-05-21T21:34:29.668Z,19.25
2023-05-21T21:37:33.778Z,15.25
2023-05-21T21:40:36.665Z,16.50
2023-05-21T21:43:39.493Z,13.25
2023-05-21T21:46:42.422Z,14.50
2023-05-21T21:49:44.971Z,16.75
2023-05-21T21:52:49.135Z,17.25
2023-05-21T21:55:51.860Z,20.00
2023-05-21T21:58:54.684Z,20.50
2023-05-21T22:01:57.135Z,15.75
2023-05-21T22:05:00.033Z,19.00
2023-05-21T22:08:02.753Z,19.75
2023-05-21T22:11:05.731Z,20.50
2023-05-21T22:14:08.782Z,20.50
2023-05-21T22:17:14.143Z,17.00
2023-05-21T22:20:43.606Z,19.25
2023-05-21T22:23:50.336Z,25.75
2023-05-21T22:26:52.982Z,21.50
2023-05-21T22:29:55.798Z,26.00
2023-05-21T22:32:58.242Z,19.50
2023-05-21T22:36:01.224Z,24.25
2023-05-21T22:39:03.744Z,20.50
2023-05-21T22:42:06.743Z,20.00
2023-05-21T22:45:09.957Z,22.75
2023-05-21T22:48:12.764Z,20.00
2023-05-21T22:51:15.256Z,22.00
2023-05-21T22:54:18.148Z,22.75
2023-05-21T22:57:21.389Z,26.25
2023-05-21T23:00:24.328Z,24.75
2023-05-21T23:03:27.010Z,19.25
2023-05-21T23:06:30.127Z,26.50
2023-05-21T23:09:32.612Z,25.50
2023-05-21T23:12:35.668Z,24.00
2023-05-21T23:15:39.142Z,25.50
2023-05-21T23:18:42.269Z,22.25
2023-05-21T23:21:44.739Z,23.75
2023-05-21T23:24:48.808Z,26.50
2023-05-21T23:27:51.369Z,29.75
2023-05-21T23:30:54.119Z,28.00
2023-05-21T23:33:59.325Z,25.00
2023-05-21T23:37:01.988Z,24.50
2023-05-21T23:40:05.512Z,25.25
2023-05-21T23:43:08.423Z,29.25
2023-05-21T23:46:11.395Z,24.50
2023-05-21T23:49:14.362Z,22.75
2023-05-21T23:52:18.556Z,29.00
2023-05-21T23:55:21.263Z,28.75
2023-05-21T23:58:23.621Z,31.25
